Time;durP1;ratioP1;P1;durP2;ratioP2;P2;SDS_P1;SDS_P2;PMS_P1;PMS_P2;Temp;Humidity;BMP_temperature;BMP_pressure;BME280_temperature;BME280_humidity;BME280_pressure;Samples;Min_cycle;Max_cycle;Signal;HPM_P1;HPM_P2
2023/03/04 00:02:08;;;;;;;41.33;16.40;;;;;;;;;;5051540;28;20037;-83
2023/03/04 00:04:35;;;;;;;41.08;16.60;;;;;;;;;;5052465;28;20030;-85
2023/03/04 00:07:02;;;;;;;40.28;15.82;;;;;;;;;;5052737;28;20037;-85
2023/03/04 00:09:28;;;;;;;40.95;17.05;;;;;;;;;;5052096;28;20057;-84
2023/03/04 00:11:55;;;;;;;45.53;16.52;;;;;;;;;;5045808;28;20032;-84
2023/03/04 00:14:22;;;;;;;40.30;16.48;;;;;;;;;;5050405;28;20040;-84
2023/03/04 00:16:49;;;;;;;40.17;17.25;;;;;;;;;;5050150;28;20038;-85
2023/03/04 00:19:15;;;;;;;38.72;16.55;;;;;;;;;;5050843;28;20033;-85
2023/03/04 00:21:42;;;;;;;43.00;16.60;;;;;;;;;;5033651;28;20095;-85
2023/03/04 00:24:09;;;;;;;41.63;16.13;;;;;;;;;;5026501;28;20045;-85
2023/03/04 00:26:35;;;;;;;41.90;17.05;;;;;;;;;;5046280;28;20043;-84
2023/03/04 00:29:02;;;;;;;43.22;16.98;;;;;;;;;;5027252;28;20041;-84
2023/03/04 00:31:28;;;;;;;43.88;17.13;;;;;;;;;;5024925;28;20041;-84
2023/03/04 00:33:55;;;;;;;42.03;16.70;;;;;;;;;;5024936;28;20052;-85
2023/03/04 00:36:21;;;;;;;45.28;17.48;;;;;;;;;;5024261;28;20049;-83
2023/03/04 00:38:48;;;;;;;41.40;17.45;;;;;;;;;;5041245;28;20222;-83
2023/03/04 00:41:15;;;;;;;42.85;17.80;;;;;;;;;;5034296;28;20049;-84
2023/03/04 00:43:41;;;;;;;46.72;17.35;;;;;;;;;;5015905;28;20060;-83
2023/03/04 00:46:08;;;;;;;38.72;16.48;;;;;;;;;;5014738;28;20037;-84
2023/03/04 00:48:35;;;;;;;41.22;16.50;;;;;;;;;;5015997;28;20129;-84
2023/03/04 00:51:01;;;;;;;42.20;16.80;;;;;;;;;;5016891;28;20041;-84
2023/03/04 00:53:28;;;;;;;42.28;16.45;;;;;;;;;;5037008;28;20065;-83
2023/03/04 00:55:54;;;;;;;41.58;16.88;;;;;;;;;;5020515;28;20049;-82
2023/03/04 00:58:24;;;;;;;40.40;15.75;;;;;;;;;;5028108;28;20045;-83
2023/03/04 01:00:51;;;;;;;43.72;16.58;;;;;;;;;;5050431;28;20049;-84
2023/03/04 01:03:17;;;;;;;46.92;17.77;;;;;;;;;;5020250;28;20037;-83
2023/03/04 01:05:44;;;;;;;41.65;16.40;;;;;;;;;;5014576;28;20057;-82
2023/03/04 01:08:10;;;;;;;39.85;16.23;;;;;;;;;;5029086;28;20038;-83
2023/03/04 01:10:37;;;;;;;41.47;16.77;;;;;;;;;;5022548;28;20042;-82
2023/03/04 01:13:03;;;;;;;35.95;15.77;;;;;;;;;;5023050;28;20038;-82
2023/03/04 01:15:30;;;;;;;42.25;16.33;;;;;;;;;;5022025;28;20053;-83
2023/03/04 01:17:56;;;;;;;41.65;15.50;;;;;;;;;;5032955;28;20037;-82
2023/03/04 01:20:23;;;;;;;34.78;15.23;;;;;;;;;;5034427;28;20055;-83
2023/03/04 01:22:50;;;;;;;36.67;15.65;;;;;;;;;;5016519;28;20104;-83
2023/03/04 01:25:16;;;;;;;36.08;15.70;;;;;;;;;;5035870;28;20042;-84
2023/03/04 01:27:43;;;;;;;38.60;15.50;;;;;;;;;;5033678;28;20065;-83
2023/03/04 01:30:10;;;;;;;33.78;15.18;;;;;;;;;;5033864;28;20041;-83
2023/03/04 01:32:36;;;;;;;36.25;14.95;;;;;;;;;;5033672;28;20045;-83
2023/03/04 01:35:03;;;;;;;35.75;13.75;;;;;;;;;;5019025;28;20080;-83
2023/03/04 01:37:30;;;;;;;35.63;15.05;;;;;;;;;;5033335;28;20072;-83
2023/03/04 01:39:56;;;;;;;38.70;15.65;;;;;;;;;;5031193;28;20057;-83
2023/03/04 01:42:25;;;;;;;35.03;15.18;;;;;;;;;;5031519;28;20083;-83
2023/03/04 01:44:52;;;;;;;34.58;14.23;;;;;;;;;;5032907;28;20049;-83
2023/03/04 01:47:20;;;;;;;35.95;15.60;;;;;;;;;;5040623;28;20044;-84
2023/03/04 01:49:50;;;;;;;38.20;15.43;;;;;;;;;;5056318;28;20055;-83
2023/03/04 01:52:16;;;;;;;40.97;15.68;;;;;;;;;;5055649;28;20191;-81
2023/03/04 01:54:43;;;;;;;38.65;15.55;;;;;;;;;;5058302;28;20047;-83
2023/03/04 01:57:15;;;;;;;38.88;15.88;;;;;;;;;;5066411;28;20049;-84
2023/03/04 01:59:42;;;;;;;36.78;15.82;;;;;;;;;;5046310;28;20041;-83
2023/03/04 02:02:08;;;;;;;35.55;15.85;;;;;;;;;;5061376;28;20044;-82
2023/03/04 02:04:35;;;;;;;38.22;16.63;;;;;;;;;;5061147;28;20136;-84
2023/03/04 02:07:03;;;;;;;37.83;16.17;;;;;;;;;;5063039;28;20403;-83
2023/03/04 02:09:30;;;;;;;39.95;16.73;;;;;;;;;;5069221;28;20072;-82
2023/03/04 02:11:57;;;;;;;39.25;15.98;;;;;;;;;;5067680;28;20057;-83
2023/03/04 02:14:24;;;;;;;39.58;16.52;;;;;;;;;;5069285;28;20068;-84
2023/03/04 02:16:51;;;;;;;36.38;15.55;;;;;;;;;;5067395;28;20060;-83
2023/03/04 02:19:36;;;;;;;43.75;16.65;;;;;;;;;;5046968;28;20036;-84
2023/03/04 02:22:02;;;;;;;40.72;16.38;;;;;;;;;;5060977;28;20123;-84
2023/03/04 02:24:29;;;;;;;44.80;17.20;;;;;;;;;;5052172;28;20545;-84
2023/03/04 02:26:55;;;;;;;44.33;16.73;;;;;;;;;;5046945;28;20112;-84
2023/03/04 02:29:24;;;;;;;48.25;17.55;;;;;;;;;;5065935;28;20045;-83
2023/03/04 02:31:52;;;;;;;45.33;17.48;;;;;;;;;;5072869;28;20064;-82
2023/03/04 02:34:20;;;;;;;46.75;17.00;;;;;;;;;;5056918;28;20060;-84
2023/03/04 02:36:47;;;;;;;41.95;16.42;;;;;;;;;;5046151;28;20057;-84
2023/03/04 02:39:31;;;;;;;47.47;18.30;;;;;;;;;;5046374;28;20041;-83
2023/03/04 02:41:58;;;;;;;46.55;16.83;;;;;;;;;;5012645;28;20128;-82
2023/03/04 02:44:29;;;;;;;44.47;16.58;;;;;;;;;;5035384;28;20554;-83
2023/03/04 02:46:57;;;;;;;46.22;17.65;;;;;;;;;;5035613;28;20057;-83
2023/03/04 02:49:25;;;;;;;43.40;16.65;;;;;;;;;;5040195;28;20037;-82
2023/03/04 02:52:00;;;;;;;49.00;16.48;;;;;;;;;;5042872;28;20045;-84
2023/03/04 02:54:26;;;;;;;46.00;17.10;;;;;;;;;;5046837;28;20052;-85
2023/03/04 02:56:55;;;;;;;42.25;15.80;;;;;;;;;;5064232;28;20468;-84
2023/03/04 02:59:22;;;;;;;44.30;16.35;;;;;;;;;;5038896;28;20083;-84
2023/03/04 03:01:50;;;;;;;43.72;16.88;;;;;;;;;;5051786;28;20064;-84
2023/03/04 03:04:18;;;;;;;40.97;16.05;;;;;;;;;;5053960;28;20053;-84
2023/03/04 03:06:45;;;;;;;39.85;17.38;;;;;;;;;;5055486;28;20088;-84
2023/03/04 03:09:11;;;;;;;44.85;16.60;;;;;;;;;;5038877;28;20049;-82
2023/03/04 03:11:38;;;;;;;42.80;15.85;;;;;;;;;;5038670;28;20052;-82
2023/03/04 03:14:10;;;;;;;44.92;16.55;;;;;;;;;;5039396;28;20141;-82
2023/03/04 03:16:37;;;;;;;41.33;16.50;;;;;;;;;;5040189;28;20120;-80
2023/03/04 03:19:04;;;;;;;40.45;15.63;;;;;;;;;;5045295;28;20041;-84
2023/03/04 03:21:32;;;;;;;40.45;15.40;;;;;;;;;;5067235;28;20017;-86
2023/03/04 03:24:01;;;;;;;38.97;16.38;;;;;;;;;;5064061;28;20044;-83
2023/03/04 03:26:28;;;;;;;43.08;15.63;;;;;;;;;;5067423;28;20185;-84
2023/03/04 03:28:55;;;;;;;39.85;15.40;;;;;;;;;;5061939;28;20044;-84
2023/03/04 03:31:21;;;;;;;43.53;16.90;;;;;;;;;;5038479;28;20525;-83
2023/03/04 03:33:48;;;;;;;43.33;15.63;;;;;;;;;;5043037;28;20049;-83
2023/03/04 03:36:14;;;;;;;41.80;15.40;;;;;;;;;;5041471;28;20072;-84
2023/03/04 03:38:41;;;;;;;38.13;15.38;;;;;;;;;;5034094;28;20044;-83
2023/03/04 03:41:08;;;;;;;39.35;16.30;;;;;;;;;;5033928;28;20057;-82
2023/03/04 03:43:34;;;;;;;39.60;15.38;;;;;;;;;;5035233;28;20075;-83
2023/03/04 03:46:02;;;;;;;46.38;16.67;;;;;;;;;;5033296;28;20132;-83
2023/03/04 03:48:29;;;;;;;40.90;15.30;;;;;;;;;;5032440;28;20488;-83
2023/03/04 03:50:55;;;;;;;50.08;16.77;;;;;;;;;;5032653;28;20047;-83
2023/03/04 03:53:27;;;;;;;43.40;16.13;;;;;;;;;;5036124;28;20037;-83
2023/03/04 03:55:54;;;;;;;39.78;16.02;;;;;;;;;;5049756;28;20069;-83
2023/03/04 03:58:22;;;;;;;48.85;16.10;;;;;;;;;;5051115;28;20049;-80
2023/03/04 04:00:49;;;;;;;39.55;15.27;;;;;;;;;;5051722;28;20057;-83
2023/03/04 04:03:16;;;;;;;39.53;16.40;;;;;;;;;;5049374;28;20495;-83
2023/03/04 04:05:42;;;;;;;44.33;16.20;;;;;;;;;;5037723;28;20068;-82
2023/03/04 04:08:11;;;;;;;44.10;16.05;;;;;;;;;;5049337;28;20112;-83
2023/03/04 04:10:39;;;;;;;41.58;15.77;;;;;;;;;;5047815;28;20033;-84
2023/03/04 04:13:06;;;;;;;41.72;16.33;;;;;;;;;;5049069;28;20049;-84
2023/03/04 04:15:33;;;;;;;44.50;16.33;;;;;;;;;;5045043;28;20045;-82
2023/03/04 04:17:59;;;;;;;43.47;16.45;;;;;;;;;;5044505;28;20057;-85
2023/03/04 04:20:27;;;;;;;47.83;16.75;;;;;;;;;;5041200;28;20045;-84
2023/03/04 04:23:00;;;;;;;37.03;16.02;;;;;;;;;;5043092;28;20065;-81
2023/03/04 04:25:28;;;;;;;40.03;16.92;;;;;;;;;;5046111;28;20055;-83
2023/03/04 04:27:55;;;;;;;44.13;16.15;;;;;;;;;;5041681;28;20053;-81
2023/03/04 04:30:22;;;;;;;41.50;16.63;;;;;;;;;;5038744;28;20053;-83
2023/03/04 04:32:48;;;;;;;43.53;16.73;;;;;;;;;;5030613;28;20105;-82
2023/03/04 04:35:15;;;;;;;44.42;16.08;;;;;;;;;;5014684;28;20133;-82
2023/03/04 04:37:42;;;;;;;45.30;16.92;;;;;;;;;;5031924;28;20052;-82
2023/03/04 04:40:09;;;;;;;43.22;16.38;;;;;;;;;;5031762;28;20049;-82
2023/03/04 04:42:36;;;;;;;40.53;16.70;;;;;;;;;;5033435;28;20597;-82
2023/03/04 04:45:03;;;;;;;43.60;16.17;;;;;;;;;;5035175;28;20049;-82
2023/03/04 04:47:29;;;;;;;43.80;16.42;;;;;;;;;;5036905;28;20079;-81
2023/03/04 04:49:58;;;;;;;41.42;16.85;;;;;;;;;;5049714;28;20048;-82
2023/03/04 04:52:25;;;;;;;46.53;17.00;;;;;;;;;;5049413;28;20080;-84
2023/03/04 04:54:54;;;;;;;45.45;17.58;;;;;;;;;;5048643;28;20114;-83
2023/03/04 04:57:21;;;;;;;49.45;17.42;;;;;;;;;;5047294;28;20063;-83
2023/03/04 04:59:47;;;;;;;42.83;16.13;;;;;;;;;;5041005;28;20041;-83
2023/03/04 05:02:14;;;;;;;43.30;16.52;;;;;;;;;;5040785;28;20038;-82
2023/03/04 05:04:41;;;;;;;38.95;16.30;;;;;;;;;;5039004;28;20081;-82
2023/03/04 05:07:07;;;;;;;40.95;16.05;;;;;;;;;;5038252;28;20056;-82
2023/03/04 05:09:34;;;;;;;45.00;17.08;;;;;;;;;;5037936;28;20037;-82
2023/03/04 05:12:00;;;;;;;43.85;17.55;;;;;;;;;;5038395;28;20048;-82
2023/03/04 05:14:27;;;;;;;46.75;17.95;;;;;;;;;;5038937;28;20719;-84
2023/03/04 05:16:53;;;;;;;43.15;17.55;;;;;;;;;;5024713;28;20137;-83
2023/03/04 05:19:20;;;;;;;43.97;17.35;;;;;;;;;;5026477;28;20041;-84
2023/03/04 05:21:47;;;;;;;41.10;16.67;;;;;;;;;;5034952;28;20083;-83
2023/03/04 05:24:13;;;;;;;41.65;16.42;;;;;;;;;;5039546;28;20053;-84
2023/03/04 05:26:40;;;;;;;43.80;17.13;;;;;;;;;;5022342;28;20536;-83
2023/03/04 05:29:07;;;;;;;41.65;17.20;;;;;;;;;;5035374;28;20076;-84
2023/03/04 05:31:34;;;;;;;40.58;17.10;;;;;;;;;;5046872;28;20047;-83
2023/03/04 05:34:00;;;;;;;41.25;16.80;;;;;;;;;;5052348;28;20048;-82
2023/03/04 05:36:27;;;;;;;40.40;16.27;;;;;;;;;;5036460;28;20047;-83
2023/03/04 05:38:53;;;;;;;40.05;16.70;;;;;;;;;;5034012;28;20037;-83
2023/03/04 05:41:22;;;;;;;40.75;16.30;;;;;;;;;;5032970;28;20049;-84
2023/03/04 05:43:49;;;;;;;41.75;16.23;;;;;;;;;;5034101;28;20057;-83
2023/03/04 05:46:17;;;;;;;38.65;15.88;;;;;;;;;;5037985;28;20129;-81
2023/03/04 05:48:44;;;;;;;43.13;17.20;;;;;;;;;;5031353;28;20140;-81
2023/03/04 05:51:11;;;;;;;42.25;16.92;;;;;;;;;;5033417;28;20450;-81
2023/03/04 05:53:38;;;;;;;41.70;16.33;;;;;;;;;;5032567;28;20597;-83
2023/03/04 05:56:06;;;;;;;37.20;15.38;;;;;;;;;;5030426;28;20065;-84
2023/03/04 05:58:33;;;;;;;39.38;15.68;;;;;;;;;;5039651;28;20060;-85
2023/03/04 06:01:00;;;;;;;43.00;15.85;;;;;;;;;;5032634;28;20053;-84
2023/03/04 06:03:26;;;;;;;39.35;15.93;;;;;;;;;;5027959;28;20045;-86
2023/03/04 06:05:53;;;;;;;41.65;16.48;;;;;;;;;;5036636;28;22333;-85
2023/03/04 06:08:20;;;;;;;36.72;15.65;;;;;;;;;;5035799;28;20041;-86
2023/03/04 06:10:46;;;;;;;39.22;15.88;;;;;;;;;;5033541;28;20067;-85
2023/03/04 06:13:13;;;;;;;45.75;16.95;;;;;;;;;;5024503;28;20493;-87
2023/03/04 06:15:40;;;;;;;40.00;15.75;;;;;;;;;;5033351;28;20061;-86
2023/03/04 06:18:06;;;;;;;40.28;16.23;;;;;;;;;;5042025;28;20061;-85
2023/03/04 06:20:33;;;;;;;43.15;15.70;;;;;;;;;;5043352;28;20072;-85
2023/03/04 06:23:00;;;;;;;39.75;15.80;;;;;;;;;;5047895;28;20133;-86
2023/03/04 06:25:27;;;;;;;40.78;16.90;;;;;;;;;;5034423;28;20065;-85
2023/03/04 06:27:53;;;;;;;38.88;16.23;;;;;;;;;;5032626;28;20045;-85
2023/03/04 06:30:20;;;;;;;37.42;15.57;;;;;;;;;;5027285;28;20057;-85
2023/03/04 06:32:47;;;;;;;43.00;15.23;;;;;;;;;;5024837;28;20065;-87
2023/03/04 06:35:15;;;;;;;41.13;15.50;;;;;;;;;;5047237;28;20053;-86
2023/03/04 06:37:42;;;;;;;39.78;15.93;;;;;;;;;;5044475;28;20045;-86
2023/03/04 06:40:09;;;;;;;38.88;15.05;;;;;;;;;;5038993;28;20049;-86
2023/03/04 06:42:36;;;;;;;40.25;14.93;;;;;;;;;;5036605;28;20128;-85
2023/03/04 06:45:03;;;;;;;42.83;14.95;;;;;;;;;;5034657;28;20137;-85
2023/03/04 06:47:30;;;;;;;39.42;14.90;;;;;;;;;;5040157;28;20147;-86
2023/03/04 06:49:56;;;;;;;44.08;15.13;;;;;;;;;;5034382;28;20124;-87
2023/03/04 06:52:23;;;;;;;31.17;13.05;;;;;;;;;;5028488;28;20505;-86
2023/03/04 06:54:49;;;;;;;37.70;14.00;;;;;;;;;;5028719;28;20049;-85
2023/03/04 06:57:16;;;;;;;37.33;15.35;;;;;;;;;;5029713;28;20069;-86
2023/03/04 06:59:43;;;;;;;33.00;14.18;;;;;;;;;;5014587;28;20072;-86
2023/03/04 07:02:10;;;;;;;37.78;14.80;;;;;;;;;;5031802;28;20075;-86
2023/03/04 07:04:37;;;;;;;33.25;13.35;;;;;;;;;;5032293;28;20069;-85
2023/03/04 07:07:04;;;;;;;39.28;15.13;;;;;;;;;;5033204;28;20050;-86
2023/03/04 07:09:30;;;;;;;38.20;13.90;;;;;;;;;;5033403;28;20053;-86
2023/03/04 07:11:57;;;;;;;33.47;14.15;;;;;;;;;;5035084;28;20060;-86
2023/03/04 07:14:24;;;;;;;41.67;14.45;;;;;;;;;;5018190;28;20152;-87
2023/03/04 07:16:51;;;;;;;41.20;14.00;;;;;;;;;;5019429;28;20050;-86
2023/03/04 07:19:17;;;;;;;40.88;15.23;;;;;;;;;;5036135;28;20080;-86
2023/03/04 07:21:47;;;;;;;36.38;14.20;;;;;;;;;;5038304;28;20089;-87
2023/03/04 07:24:14;;;;;;;30.17;12.80;;;;;;;;;;5044290;28;20056;-87
2023/03/04 07:26:41;;;;;;;37.83;13.65;;;;;;;;;;5005486;28;20062;-87
2023/03/04 07:29:08;;;;;;;41.95;13.85;;;;;;;;;;5018295;28;20049;-85
2023/03/04 07:31:35;;;;;;;40.50;13.65;;;;;;;;;;5033422;28;20682;-86
2023/03/04 07:34:04;;;;;;;36.67;13.90;;;;;;;;;;5022165;28;20066;-88
2023/03/04 07:36:32;;;;;;;38.83;12.45;;;;;;;;;;5032133;28;20061;-87
2023/03/04 07:39:02;;;;;;;33.65;12.15;;;;;;;;;;5032725;28;20050;-87
2023/03/04 07:41:35;;;;;;;30.98;11.55;;;;;;;;;;5024638;28;20052;-88
2023/03/04 07:44:02;;;;;;;42.88;13.32;;;;;;;;;;5020431;28;20048;-86
2023/03/04 07:46:29;;;;;;;32.13;12.77;;;;;;;;;;5033669;28;20144;-86
2023/03/04 07:51:54;;;;;;;35.63;11.73;;;;;;;;;;5057102;28;20179;-87
2023/03/04 07:54:24;;;;;;;33.35;12.18;;;;;;;;;;5051204;28;20046;-87
2023/03/04 07:56:52;;;;;;;29.60;12.35;;;;;;;;;;5041345;28;20095;-86
2023/03/04 07:59:44;;;;;;;41.83;13.55;;;;;;;;;;5032046;28;20046;-88
2023/03/04 08:02:20;;;;;;;33.65;11.02;;;;;;;;;;4971244;28;20029;-86
2023/03/04 08:04:47;;;;;;;31.80;11.85;;;;;;;;;;4985662;28;20184;-88
2023/03/04 08:07:18;;;;;;;31.15;10.88;;;;;;;;;;5034535;28;20041;-85
2023/03/04 08:09:47;;;;;;;31.80;11.52;;;;;;;;;;5042807;28;20049;-86
2023/03/04 08:12:18;;;;;;;28.67;9.65;;;;;;;;;;5030596;28;20052;-86
2023/03/04 08:14:44;;;;;;;31.63;10.75;;;;;;;;;;5033535;28;20157;-86
2023/03/04 08:17:14;;;;;;;31.23;10.93;;;;;;;;;;5026823;28;20044;-85
2023/03/04 08:19:41;;;;;;;29.90;9.95;;;;;;;;;;5034748;28;20033;-86
2023/03/04 08:22:10;;;;;;;31.27;11.32;;;;;;;;;;5042015;28;20103;-87
2023/03/04 08:24:37;;;;;;;27.98;9.80;;;;;;;;;;5021522;28;20560;-87
2023/03/04 08:27:04;;;;;;;34.25;11.25;;;;;;;;;;5027449;28;20681;-87
2023/03/04 08:29:31;;;;;;;29.98;10.30;;;;;;;;;;5010141;28;20128;-87
2023/03/04 08:32:05;;;;;;;31.27;10.10;;;;;;;;;;5018438;28;20045;-87
2023/03/04 08:34:39;;;;;;;23.50;8.75;;;;;;;;;;5016907;28;20477;-87
2023/03/04 08:37:06;;;;;;;27.90;9.85;;;;;;;;;;5029956;28;20808;-86
2023/03/04 08:39:34;;;;;;;34.05;8.65;;;;;;;;;;5029319;28;20044;-86
2023/03/04 08:42:01;;;;;;;25.25;9.23;;;;;;;;;;5032926;28;20554;-86
2023/03/04 08:44:28;;;;;;;29.75;8.77;;;;;;;;;;5032261;28;20104;-85
2023/03/04 08:46:55;;;;;;;43.10;9.23;;;;;;;;;;5030199;28;20084;-87
2023/03/04 08:49:22;;;;;;;31.92;8.48;;;;;;;;;;5030248;28;20524;-86
2023/03/04 08:51:49;;;;;;;32.80;9.27;;;;;;;;;;5032208;28;20124;-84
2023/03/04 08:54:19;;;;;;;27.83;8.82;;;;;;;;;;5026547;28;20117;-85
2023/03/04 08:56:46;;;;;;;30.50;8.77;;;;;;;;;;5011133;28;20052;-85
2023/03/04 08:59:12;;;;;;;29.77;8.20;;;;;;;;;;5029800;28;20060;-85
2023/03/04 09:01:40;;;;;;;34.33;9.45;;;;;;;;;;5042915;28;20033;-85
2023/03/04 09:04:10;;;;;;;33.00;8.85;;;;;;;;;;5037398;28;20132;-85
2023/03/04 09:06:36;;;;;;;26.50;7.80;;;;;;;;;;5029055;28;20133;-86
2023/03/04 09:09:03;;;;;;;28.77;8.40;;;;;;;;;;5008382;28;20398;-86
2023/03/04 09:11:30;;;;;;;42.83;7.80;;;;;;;;;;5031812;28;20056;-86
2023/03/04 09:13:57;;;;;;;28.60;6.82;;;;;;;;;;5032856;28;20053;-85
2023/03/04 09:16:23;;;;;;;29.88;7.50;;;;;;;;;;5036763;28;20076;-84
2023/03/04 09:18:50;;;;;;;29.65;7.85;;;;;;;;;;5025333;28;20060;-86
2023/03/04 09:21:16;;;;;;;25.80;7.40;;;;;;;;;;5034199;28;20067;-89
2023/03/04 09:23:43;;;;;;;25.48;6.88;;;;;;;;;;5048407;28;20395;-85
2023/03/04 09:26:21;;;;;;;29.58;7.47;;;;;;;;;;5031168;28;20048;-84
2023/03/04 09:28:49;;;;;;;37.58;7.13;;;;;;;;;;5049762;28;20057;-85
2023/03/04 09:31:15;;;;;;;25.08;6.53;;;;;;;;;;5046043;28;20038;-84
2023/03/04 09:33:42;;;;;;;25.30;6.82;;;;;;;;;;5016889;28;20072;-85
2023/03/04 09:36:10;;;;;;;20.80;6.22;;;;;;;;;;5016436;28;20053;-85
2023/03/04 09:38:37;;;;;;;25.17;7.13;;;;;;;;;;5021522;28;20087;-85
2023/03/04 09:41:08;;;;;;;29.10;7.85;;;;;;;;;;5032828;28;20056;-86
2023/03/04 09:43:36;;;;;;;24.60;6.90;;;;;;;;;;5039358;28;20103;-86
2023/03/04 09:46:06;;;;;;;22.85;7.13;;;;;;;;;;5030328;28;20108;-87
2023/03/04 09:48:38;;;;;;;23.55;6.68;;;;;;;;;;5034062;28;20464;-84
2023/03/04 09:51:25;;;;;;;24.38;6.65;;;;;;;;;;5031819;28;20111;-86
2023/03/04 09:54:04;;;;;;;26.30;6.53;;;;;;;;;;4992350;28;20041;-85
2023/03/04 09:56:36;;;;;;;25.50;7.32;;;;;;;;;;5042878;28;20057;-85
2023/03/04 09:59:10;;;;;;;24.52;6.63;;;;;;;;;;5028331;28;20125;-85
2023/03/04 10:01:52;;;;;;;26.85;7.18;;;;;;;;;;5027469;28;20108;-84
2023/03/04 10:04:27;;;;;;;20.10;6.57;;;;;;;;;;5036665;28;20064;-86
2023/03/04 10:06:55;;;;;;;15.80;6.00;;;;;;;;;;5038470;28;20498;-87
2023/03/04 10:09:29;;;;;;;22.17;6.47;;;;;;;;;;5029346;28;20041;-84
2023/03/04 10:12:00;;;;;;;26.10;6.40;;;;;;;;;;5048797;28;20052;-88
2023/03/04 10:14:32;;;;;;;27.20;6.40;;;;;;;;;;5057639;28;20055;-86
2023/03/04 10:16:59;;;;;;;26.27;6.25;;;;;;;;;;5032365;28;20458;-88
2023/03/04 10:19:34;;;;;;;23.65;6.10;;;;;;;;;;5013691;28;20136;-86
2023/03/04 10:22:01;;;;;;;24.55;5.82;;;;;;;;;;5035329;28;20049;-86
2023/03/04 10:24:28;;;;;;;22.23;6.57;;;;;;;;;;5015038;28;20061;-82
2023/03/04 10:27:00;;;;;;;19.08;6.28;;;;;;;;;;5019754;28;20072;-84
2023/03/04 10:29:28;;;;;;;22.90;6.43;;;;;;;;;;5032344;28;20050;-87
2023/03/04 10:31:55;;;;;;;18.70;5.57;;;;;;;;;;5030773;28;20433;-84
2023/03/04 10:34:22;;;;;;;22.00;6.18;;;;;;;;;;5043452;28;20059;-85
2023/03/04 10:36:53;;;;;;;26.67;6.00;;;;;;;;;;5044428;28;20049;-85
2023/03/04 10:39:29;;;;;;;19.73;6.22;;;;;;;;;;5037164;28;20065;-85
2023/03/04 10:41:56;;;;;;;27.17;5.82;;;;;;;;;;5025035;28;20037;-86
2023/03/04 10:44:23;;;;;;;29.52;6.22;;;;;;;;;;5019419;28;20141;-85
2023/03/04 10:46:51;;;;;;;30.80;6.65;;;;;;;;;;5021484;28;20045;-87
2023/03/04 10:49:18;;;;;;;19.15;5.63;;;;;;;;;;5020294;28;20037;-83
2023/03/04 10:51:49;;;;;;;21.25;6.03;;;;;;;;;;5036365;28;20053;-87
2023/03/04 10:54:21;;;;;;;19.58;6.10;;;;;;;;;;5023876;28;20047;-86
2023/03/04 10:56:58;;;;;;;17.45;6.18;;;;;;;;;;5036016;28;20478;-87
2023/03/04 10:59:30;;;;;;;14.98;4.85;;;;;;;;;;5019444;28;20205;-87
2023/03/04 11:02:07;;;;;;;23.77;5.95;;;;;;;;;;5036243;28;20041;-85
2023/03/04 11:04:34;;;;;;;21.70;6.30;;;;;;;;;;5049839;28;20449;-85
2023/03/04 11:07:01;;;;;;;15.18;4.93;;;;;;;;;;5016030;28;20041;-87
2023/03/04 11:09:28;;;;;;;16.77;4.32;;;;;;;;;;5032656;28;20056;-85
2023/03/04 11:12:03;;;;;;;18.90;4.70;;;;;;;;;;5032611;28;20045;-89
2023/03/04 11:14:36;;;;;;;16.42;5.15;;;;;;;;;;5016860;28;20096;-85
2023/03/04 11:17:15;;;;;;;16.02;4.55;;;;;;;;;;5033555;28;20080;-86
2023/03/04 11:19:44;;;;;;;16.20;4.88;;;;;;;;;;5031814;28;20042;-87
2023/03/04 11:22:15;;;;;;;21.60;4.97;;;;;;;;;;5037559;28;20060;-83
2023/03/04 11:24:42;;;;;;;16.83;5.13;;;;;;;;;;5036096;28;20069;-84
2023/03/04 11:27:19;;;;;;;22.67;4.90;;;;;;;;;;5033677;28;20060;-86
2023/03/04 11:30:04;;;;;;;16.98;5.30;;;;;;;;;;5034757;28;20113;-87
2023/03/04 11:32:39;;;;;;;16.25;4.75;;;;;;;;;;5021208;28;20101;-85
2023/03/04 11:35:15;;;;;;;15.13;5.20;;;;;;;;;;5024459;28;20641;-87
2023/03/04 11:37:47;;;;;;;14.55;4.32;;;;;;;;;;5025464;28;20095;-83
2023/03/04 11:40:20;;;;;;;17.70;4.68;;;;;;;;;;5033175;28;20052;-87
2023/03/04 11:42:54;;;;;;;18.65;4.63;;;;;;;;;;5041994;28;20071;-83
2023/03/04 11:45:20;;;;;;;17.80;4.63;;;;;;;;;;5024929;28;20114;-80
2023/03/04 11:48:05;;;;;;;17.83;4.78;;;;;;;;;;5043910;28;20041;-84
2023/03/04 11:50:34;;;;;;;16.17;4.70;;;;;;;;;;5037726;28;20097;-81
2023/03/04 11:53:13;;;;;;;18.60;5.10;;;;;;;;;;5046785;28;20045;-85
2023/03/04 11:55:55;;;;;;;19.02;4.45;;;;;;;;;;5045676;28;20029;-86
2023/03/04 11:58:27;;;;;;;18.25;4.57;;;;;;;;;;5044778;28;20124;-86
2023/03/04 12:01:14;;;;;;;16.25;4.28;;;;;;;;;;5041806;28;20060;-84
2023/03/04 12:03:56;;;;;;;16.80;4.47;;;;;;;;;;5003458;28;20057;-83
2023/03/04 12:06:32;;;;;;;11.00;2.88;;;;;;;;;;5017088;28;20049;-87
2023/03/04 12:08:59;;;;;;;12.90;2.90;;;;;;;;;;5039866;28;20041;-81
2023/03/04 12:11:28;;;;;;;10.45;3.42;;;;;;;;;;5032978;28;20048;-88
2023/03/04 12:14:11;;;;;;;11.13;2.58;;;;;;;;;;5023429;28;20134;-86
2023/03/04 12:17:13;;;;;;;12.68;2.38;;;;;;;;;;5014183;28;20382;-83
2023/03/04 12:19:46;;;;;;;9.55;2.58;;;;;;;;;;4990403;28;20046;-84
2023/03/04 12:22:16;;;;;;;12.60;2.58;;;;;;;;;;5026183;28;20544;-83
2023/03/04 12:25:01;;;;;;;8.95;2.47;;;;;;;;;;5037385;28;20080;-87
2023/03/04 12:27:33;;;;;;;10.23;3.47;;;;;;;;;;5030815;28;20041;-83
2023/03/04 12:30:05;;;;;;;10.50;2.47;;;;;;;;;;5031463;28;20568;-82
2023/03/04 12:32:43;;;;;;;8.88;1.98;;;;;;;;;;5034000;28;20144;-85
2023/03/04 12:35:25;;;;;;;5.68;1.85;;;;;;;;;;5022690;28;20049;-84
2023/03/04 12:38:11;;;;;;;10.57;2.70;;;;;;;;;;5019884;28;20060;-87
2023/03/04 12:40:49;;;;;;;12.52;2.05;;;;;;;;;;5035798;28;20046;-83
2023/03/04 12:43:35;;;;;;;6.68;2.03;;;;;;;;;;5014281;28;20041;-84
2023/03/04 12:46:01;;;;;;;;;;;;;;;;;;5030313;28;20116;-88
2023/03/04 12:48:28;;;;;;;7.50;1.75;;;;;;;;;;5032380;28;19937;-88
2023/03/04 12:51:04;;;;;;;8.07;2.10;;;;;;;;;;5032447;28;20045;-87
2023/03/04 12:53:30;;;;;;;;;;;;;;;;;;5031786;28;20052;-84
2023/03/04 12:55:58;;;;;;;4.90;1.52;;;;;;;;;;5031235;28;20436;-87
2023/03/04 12:58:26;;;;;;;10.25;1.58;;;;;;;;;;5013558;28;20055;-83
2023/03/04 13:01:17;;;;;;;6.70;1.33;;;;;;;;;;5031853;28;20041;-84
2023/03/04 13:03:46;;;;;;;3.15;1.30;;;;;;;;;;5043640;28;20420;-83
2023/03/04 13:06:32;;;;;;;6.88;1.73;;;;;;;;;;5049261;28;20052;-86
2023/03/04 13:09:03;;;;;;;6.97;1.63;;;;;;;;;;5012977;28;20050;-81
2023/03/04 13:11:40;;;;;;;3.50;1.15;;;;;;;;;;4993320;28;20056;-87
2023/03/04 13:14:06;;;;;;;2.72;1.38;;;;;;;;;;5028737;28;20065;-84
2023/03/04 13:16:41;;;;;;;3.75;1.25;;;;;;;;;;5019701;28;20045;-82
2023/03/04 13:19:26;;;;;;;11.02;1.45;;;;;;;;;;5027933;28;20065;-87
2023/03/04 13:22:29;;;;;;;4.13;1.50;;;;;;;;;;5021950;28;20048;-84
2023/03/04 13:24:57;;;;;;;6.65;1.40;;;;;;;;;;4997309;28;20137;-84
2023/03/04 13:27:42;;;;;;;4.35;1.50;;;;;;;;;;5008118;28;20042;-84
2023/03/04 13:30:27;;;;;;;8.02;1.67;;;;;;;;;;5013364;28;20080;-83
2023/03/04 13:32:54;;;;;;;7.70;1.88;;;;;;;;;;5013405;28;20077;-83
2023/03/04 13:35:39;;;;;;;4.35;1.77;;;;;;;;;;5008373;28;20064;-86
2023/03/04 13:38:36;;;;;;;3.95;1.25;;;;;;;;;;5013397;28;20052;-86
2023/03/04 13:41:18;;;;;;;7.82;1.50;;;;;;;;;;5022066;28;20498;-83
2023/03/04 13:43:50;;;;;;;7.40;1.50;;;;;;;;;;5005895;28;20095;-88
2023/03/04 13:46:26;;;;;;;3.53;1.30;;;;;;;;;;4968221;28;20123;-88
2023/03/04 13:48:54;;;;;;;2.92;1.30;;;;;;;;;;5008325;28;20073;-87
2023/03/04 13:51:24;;;;;;;2.22;1.10;;;;;;;;;;5005726;28;20049;-88
2023/03/04 13:54:01;;;;;;;2.70;1.13;;;;;;;;;;5013902;28;20045;-87
2023/03/04 13:56:31;;;;;;;;;;;;;;;;;;5014631;28;20067;-87
2023/03/04 13:59:06;;;;;;;2.88;1.20;;;;;;;;;;5015482;28;19925;-89
2023/03/04 14:01:33;;;;;;;;;;;;;;;;;;5031019;28;20395;-85
2023/03/04 14:04:00;;;;;;;6.60;1.33;;;;;;;;;;5031441;28;19921;-88
2023/03/04 14:06:28;;;;;;;5.35;1.20;;;;;;;;;;5038053;28;20056;-87
2023/03/04 14:08:55;;;;;;;4.90;1.27;;;;;;;;;;5030642;28;20443;-88
2023/03/04 14:11:33;;;;;;;4.88;1.40;;;;;;;;;;5034915;28;20053;-88
2023/03/04 14:14:03;;;;;;;4.90;1.95;;;;;;;;;;5021027;28;20424;-87
2023/03/04 14:16:38;;;;;;;3.10;1.35;;;;;;;;;;5027698;28;20056;-88
2023/03/04 14:19:40;;;;;;;5.20;1.60;;;;;;;;;;5013626;28;20049;-89
2023/03/04 14:22:32;;;;;;;4.70;1.60;;;;;;;;;;4937487;28;20053;-90
2023/03/04 14:25:04;;;;;;;6.80;1.27;;;;;;;;;;5019140;28;20094;-88
2023/03/04 14:27:34;;;;;;;4.55;1.48;;;;;;;;;;5020660;28;20067;-86
2023/03/04 14:30:03;;;;;;;4.07;1.42;;;;;;;;;;5038538;28;20045;-87
2023/03/04 14:32:30;;;;;;;3.85;1.30;;;;;;;;;;5035732;28;20528;-86
2023/03/04 14:35:02;;;;;;;5.22;1.52;;;;;;;;;;5039074;28;20087;-87
2023/03/04 14:37:49;;;;;;;7.57;1.42;;;;;;;;;;5008966;28;20135;-89
2023/03/04 14:40:20;;;;;;;4.40;1.70;;;;;;;;;;5017517;28;20076;-85
2023/03/04 14:42:49;;;;;;;5.20;1.85;;;;;;;;;;5035182;28;20085;-86
2023/03/04 14:45:16;;;;;;;5.22;1.48;;;;;;;;;;5027421;28;20072;-87